^^
Datos históricos de la estación: Murcia-Puente Tocinos
Diario Informe para Mayo 16, 2019 Unidades:  Ambas    Ingés   Métrico
Diario Semanal Mensual Anual
  Máxima: Mínima: Promedio:
Temperatura: 92.3 °F /  33.5 °C 72 °F /  22.2 °C 81 °F /  27.2 °C
Punto de rocio: 72.1 °F /  22.3 °C 60.8 °F /  16 °C 67.5 °F /  19.7 °C
Humedad: 84.2% 35.4% 66%
Velocidad viento: 13.5mph /  21.7km/h - 5.4mph /  8.7km/h
Racha viento: 23.5mph /  37.8km/h - -
Viento- - ENE
Presión: 30 in /  1017.1 hPa 29.9 in /  1013.1 hPa -
Precipitación: 0 in /  0.0 mm    
 
 
Tabla de datos para Mayo 16, 2019
Hora Temperatura Punto de rocio Presión Viento Velocidad viento Racha viento Humedad Intensidad lluvia(por hora) Nubes
00:04 77.5 °F /  25.3 °C 68.4 °F /  20.2 °C 30in /  1016.1hPa NE 3.6mph /  5.8km/h 6.9mph /  11.1km/h 73.3% 0in /  0.0mm
00:09 77.4 °F /  25.2 °C 68.5 °F /  20.3 °C 30in /  1016.1hPa NE 3.7mph /  6km/h 7mph /  11.3km/h 74% 0in /  0.0mm
00:14 77.4 °F /  25.2 °C 68.4 °F /  20.2 °C 30in /  1016.1hPa NE 4mph /  6.5km/h 8.5mph /  13.7km/h 74.1% 0in /  0.0mm
00:19 77.2 °F /  25.1 °C 68.5 °F /  20.3 °C 30in /  1016.1hPa NE 4.2mph /  6.8km/h 9mph /  14.5km/h 75% 0in /  0.0mm
00:24 76.8 °F /  24.9 °C 68.4 °F /  20.2 °C 30in /  1016.0hPa NE 4.7mph /  7.6km/h 8mph /  12.9km/h 75% 0in /  0.0mm
00:29 76.8 °F /  24.9 °C 68.5 °F /  20.3 °C 30in /  1016.0hPa NE 4.7mph /  7.6km/h 8.5mph /  13.7km/h 75.6% 0in /  0.0mm
00:34 76.8 °F /  24.9 °C 68.7 °F /  20.4 °C 30in /  1016.1hPa NE 4.7mph /  7.6km/h 9mph /  14.5km/h 76% 0in /  0.0mm
00:39 76.6 °F /  24.8 °C 68.5 °F /  20.3 °C 30in /  1016.1hPa NE 4.8mph /  7.8km/h 9.2mph /  14.8km/h 76% 0in /  0.0mm
00:44 76.6 °F /  24.8 °C 68.9 °F /  20.5 °C 30in /  1016.1hPa NE 5.2mph /  8.4km/h 9.2mph /  14.8km/h 77% 0in /  0.0mm
00:49 76.5 °F /  24.7 °C 68.7 °F /  20.4 °C 30in /  1016.1hPa NE 5.3mph /  8.5km/h 9.2mph /  14.8km/h 77% 0in /  0.0mm
00:54 76.5 °F /  24.7 °C 68.7 °F /  20.4 °C 30in /  1016.1hPa NE 5.4mph /  8.7km/h 10.4mph /  16.7km/h 77% 0in /  0.0mm
00:59 76.3 °F /  24.6 °C 68.5 °F /  20.3 °C 30in /  1016.1hPa NE 5.5mph /  8.9km/h 10mph /  16.1km/h 77% 0in /  0.0mm
01:04 76.3 °F /  24.6 °C 68.5 °F /  20.3 °C 30in /  1016.1hPa NE 5.9mph /  9.5km/h 9.2mph /  14.8km/h 77% 0in /  0.0mm
01:09 76.1 °F /  24.5 °C 68.7 °F /  20.4 °C 30in /  1016.0hPa NE 5.7mph /  9.2km/h 9mph /  14.5km/h 77.7% 0in /  0.0mm
01:14 75.9 °F /  24.4 °C 68.5 °F /  20.3 °C 30in /  1016.0hPa NE 5.2mph /  8.4km/h 7.4mph /  11.9km/h 78% 0in /  0.0mm
01:19 75.9 °F /  24.4 °C 68.5 °F /  20.3 °C 30in /  1016.1hPa NE 5.2mph /  8.4km/h 7mph /  11.3km/h 78% 0in /  0.0mm
01:24 75.9 °F /  24.4 °C 68.5 °F /  20.3 °C 30in /  1016.1hPa NE 5.2mph /  8.4km/h 7mph /  11.3km/h 78% 0in /  0.0mm
01:29 75.9 °F /  24.4 °C 68.5 °F /  20.3 °C 30in /  1016.1hPa NE 5mph /  8km/h 8.1mph /  13km/h 78% 0in /  0.0mm
01:34 75.9 °F /  24.4 °C 68.5 °F /  20.3 °C 30in /  1016.1hPa NE 4.3mph /  6.9km/h 8.1mph /  13km/h 78% 0in /  0.0mm
01:39 75.9 °F /  24.4 °C 68.5 °F /  20.3 °C 30in /  1016.1hPa NE 4.4mph /  7.1km/h 8.1mph /  13km/h 78% 0in /  0.0mm
01:44 75.7 °F /  24.3 °C 68.5 °F /  20.3 °C 30in /  1016.1hPa NE 4.7mph /  7.6km/h 7.6mph /  12.2km/h 78% 0in /  0.0mm
01:49 75.7 °F /  24.3 °C 68.4 °F /  20.2 °C 30in /  1016.1hPa NE 4.8mph /  7.8km/h 8.1mph /  13km/h 78% 0in /  0.0mm
01:54 75.7 °F /  24.3 °C 68.4 °F /  20.2 °C 30in /  1016.0hPa NE 5.2mph /  8.4km/h 8.5mph /  13.7km/h 78% 0in /  0.0mm
01:59 75.7 °F /  24.3 °C 68.4 °F /  20.2 °C 30in /  1016.0hPa NE 5.2mph /  8.4km/h 9mph /  14.5km/h 78% 0in /  0.0mm
02:04 75.7 °F /  24.3 °C 68.4 °F /  20.2 °C 30in /  1016.0hPa NE 5.2mph /  8.4km/h 8.1mph /  13km/h 78% 0in /  0.0mm
02:09 75.7 °F /  24.3 °C 68.4 °F /  20.2 °C 30in /  1016.0hPa NE 5.2mph /  8.4km/h 8.5mph /  13.7km/h 78% 0in /  0.0mm
02:14 75.7 °F /  24.3 °C 68.5 °F /  20.3 °C 30in /  1016.0hPa NE 5.2mph /  8.4km/h 9mph /  14.5km/h 78.3% 0in /  0.0mm
02:19 75.7 °F /  24.3 °C 68.4 °F /  20.2 °C 30in /  1016.0hPa NE 5.2mph /  8.4km/h 9mph /  14.5km/h 78.1% 0in /  0.0mm
02:24 75.7 °F /  24.3 °C 68.4 °F /  20.2 °C 30in /  1015.9hPa NE 5.4mph /  8.7km/h 7mph /  11.3km/h 78% 0in /  0.0mm
02:29 75.7 °F /  24.3 °C 68.7 °F /  20.4 °C 30in /  1015.9hPa NE 5.2mph /  8.4km/h 8.1mph /  13km/h 78.8% 0in /  0.0mm
02:34 75.6 °F /  24.2 °C 68.5 °F /  20.3 °C 30in /  1015.9hPa NE 4.7mph /  7.6km/h 8mph /  12.9km/h 79% 0in /  0.0mm
02:39 75.6 °F /  24.2 °C 68.5 °F /  20.3 °C 30in /  1015.8hPa NE 4.5mph /  7.3km/h 6.2mph /  10km/h 79% 0in /  0.0mm
02:44 75.6 °F /  24.2 °C 68.5 °F /  20.3 °C 30in /  1015.8hPa NE 4mph /  6.5km/h 6.2mph /  10km/h 79% 0in /  0.0mm
02:49 75.6 °F /  24.2 °C 68.5 °F /  20.3 °C 30in /  1015.8hPa NE 4.1mph /  6.6km/h 6.9mph /  11.1km/h 79% 0in /  0.0mm
02:54 75.4 °F /  24.1 °C 68.5 °F /  20.3 °C 30in /  1015.6hPa ENE 4.3mph /  6.9km/h 7mph /  11.3km/h 79% 0in /  0.0mm
02:59 75.4 °F /  24.1 °C 68.4 °F /  20.2 °C 30in /  1015.6hPa ENE 3.7mph /  6km/h 5mph /  8km/h 78.8% 0in /  0.0mm
03:04 75.4 °F /  24.1 °C 68.2 °F /  20.1 °C 30in /  1015.9hPa NE 2.4mph /  3.9km/h 3.5mph /  5.6km/h 78.3% 0in /  0.0mm
03:09 75.4 °F /  24.1 °C 68.4 °F /  20.2 °C 30in /  1015.9hPa NE 2.1mph /  3.4km/h 4.6mph /  7.4km/h 79% 0in /  0.0mm
03:14 75.2 °F /  24 °C 68.4 °F /  20.2 °C 30in /  1015.9hPa NE 1.4mph /  2.2km/h 5mph /  8km/h 79% 0in /  0.0mm
03:19 75 °F /  23.9 °C 68.2 °F /  20.1 °C 30in /  1015.9hPa NNE 1.6mph /  2.5km/h 5mph /  8km/h 79% 0in /  0.0mm
03:24 75 °F /  23.9 °C 68.2 °F /  20.1 °C 30in /  1015.7hPa North 2mph /  3.2km/h 4.6mph /  7.4km/h 79% 0in /  0.0mm
03:29 74.8 °F /  23.8 °C 68 °F /  20 °C 30in /  1015.7hPa NNE 2mph /  3.2km/h 5mph /  8km/h 79% 0in /  0.0mm
03:34 74.7 °F /  23.7 °C 67.8 °F /  19.9 °C 30in /  1015.7hPa NE 2mph /  3.2km/h 4.6mph /  7.4km/h 79.1% 0in /  0.0mm
03:39 74.7 °F /  23.7 °C 68.2 °F /  20.1 °C 30in /  1015.7hPa NNE 2mph /  3.2km/h 5mph /  8km/h 80% 0in /  0.0mm
03:44 74.5 °F /  23.6 °C 68 °F /  20 °C 30in /  1015.7hPa NNE 2mph /  3.2km/h 3.5mph /  5.6km/h 80% 0in /  0.0mm
03:49 74.5 °F /  23.6 °C 67.8 °F /  19.9 °C 30in /  1015.7hPa NNE 1.9mph /  3.1km/h 3mph /  4.8km/h 80% 0in /  0.0mm
03:54 74.5 °F /  23.6 °C 67.8 °F /  19.9 °C 30in /  1015.7hPa NNE 1.8mph /  2.9km/h 2mph /  3.2km/h 80% 0in /  0.0mm
03:59 74.5 °F /  23.6 °C 68 °F /  20 °C 30in /  1015.7hPa NE 1.7mph /  2.7km/h 3.6mph /  5.8km/h 80.6% 0in /  0.0mm
04:04 74.3 °F /  23.5 °C 68 °F /  20 °C 30in /  1015.7hPa NE 1.4mph /  2.2km/h 5.2mph /  8.4km/h 81% 0in /  0.0mm
04:09 74.1 °F /  23.4 °C 67.8 °F /  19.9 °C 30in /  1015.7hPa NE 1.9mph /  3km/h 5.2mph /  8.4km/h 81% 0in /  0.0mm
04:14 73.9 °F /  23.3 °C 68 °F /  20 °C 30in /  1015.7hPa NE 3.1mph /  5km/h 5.2mph /  8.4km/h 81.8% 0in /  0.0mm
04:19 73.8 °F /  23.2 °C 68 °F /  20 °C 30in /  1015.7hPa NE 3.2mph /  5.2km/h 5.2mph /  8.4km/h 82% 0in /  0.0mm
04:24 73.8 °F /  23.2 °C 67.8 °F /  19.9 °C 30in /  1015.6hPa NE 3.6mph /  5.8km/h 5.2mph /  8.4km/h 82% 0in /  0.0mm
04:29 73.6 °F /  23.1 °C 67.6 °F /  19.8 °C 30in /  1015.6hPa NE 3.5mph /  5.6km/h 5mph /  8km/h 82% 0in /  0.0mm
04:34 73.6 °F /  23.1 °C 67.6 °F /  19.8 °C 30in /  1015.6hPa NE 3.1mph /  5km/h 5mph /  8km/h 82% 0in /  0.0mm
04:39 73.2 °F /  22.9 °C 67.5 °F /  19.7 °C 30in /  1015.6hPa NE 3.1mph /  5km/h 5mph /  8km/h 82% 0in /  0.0mm
04:44 73.2 °F /  22.9 °C 67.5 °F /  19.7 °C 30in /  1015.6hPa NE 3.1mph /  5km/h 5.2mph /  8.4km/h 82% 0in /  0.0mm
04:49 73 °F /  22.8 °C 67.3 °F /  19.6 °C 30in /  1015.7hPa NE 3.1mph /  5km/h 5mph /  8km/h 82% 0in /  0.0mm
04:54 73 °F /  22.8 °C 67.3 °F /  19.6 °C 30in /  1015.7hPa ENE 3.1mph /  5km/h 5.2mph /  8.4km/h 82% 0in /  0.0mm
04:59 73 °F /  22.8 °C 67.1 °F /  19.5 °C 30in /  1015.7hPa NE 3mph /  4.9km/h 5mph /  8km/h 81.5% 0in /  0.0mm
05:04 72.9 °F /  22.7 °C 66.7 °F /  19.3 °C 30in /  1015.7hPa ENE 2.9mph /  4.7km/h 5mph /  8km/h 81% 0in /  0.0mm
05:09 72.9 °F /  22.7 °C 66.9 °F /  19.4 °C 30in /  1015.7hPa NNE 2.6mph /  4.2km/h 4mph /  6.4km/h 81.2% 0in /  0.0mm
05:14 73 °F /  22.8 °C 67.3 °F /  19.6 °C 30in /  1015.7hPa North 2mph /  3.2km/h 4.6mph /  7.4km/h 82% 0in /  0.0mm
05:19 73 °F /  22.8 °C 67.3 °F /  19.6 °C 30in /  1015.7hPa NNE 2.1mph /  3.4km/h 5mph /  8km/h 82% 0in /  0.0mm
05:24 72.9 °F /  22.7 °C 67.3 °F /  19.6 °C 30in /  1015.7hPa North 2.4mph /  3.9km/h 5mph /  8km/h 82.7% 0in /  0.0mm
05:29 72.9 °F /  22.7 °C 67.5 °F /  19.7 °C 30in /  1015.7hPa North 1.7mph /  2.8km/h 3mph /  4.8km/h 83% 0in /  0.0mm
05:34 72.9 °F /  22.7 °C 67.5 °F /  19.7 °C 30in /  1015.7hPa Calm   2.4mph /  3.9km/h 83% 0in /  0.0mm
05:39 72.9 °F /  22.7 °C 67.5 °F /  19.7 °C 30in /  1015.7hPa NNO 0.4mph /  0.6km/h 2.9mph /  4.7km/h 83% 0in /  0.0mm
05:44 72.9 °F /  22.7 °C 66.9 °F /  19.4 °C 30in /  1015.7hPa North 1.4mph /  2.2km/h 3.5mph /  5.6km/h 81.8% 0in /  0.0mm
05:49 72.7 °F /  22.6 °C 66 °F /  18.9 °C 30in /  1015.7hPa North 1mph /  1.6km/h 3mph /  4.8km/h 79.7% 0in /  0.0mm
05:54 72.7 °F /  22.6 °C 65.5 °F /  18.6 °C 30in /  1015.7hPa Calm   3.6mph /  5.8km/h 78.4% 0in /  0.0mm
05:59 72.7 °F /  22.6 °C 65.3 °F /  18.5 °C 30in /  1015.7hPa NE 0.4mph /  0.7km/h 4mph /  6.4km/h 78% 0in /  0.0mm
06:04 72.7 °F /  22.6 °C 65.3 °F /  18.5 °C 30in /  1015.8hPa NE 1.4mph /  2.2km/h 3mph /  4.8km/h 77.8% 0in /  0.0mm
06:09 72.7 °F /  22.6 °C 65.5 °F /  18.6 °C 30in /  1015.8hPa NE 1.1mph /  1.7km/h 1.4mph /  2.3km/h 78% 0in /  0.0mm
06:14 72.9 °F /  22.7 °C 66 °F /  18.9 °C 30in /  1015.8hPa Calm   2.4mph /  3.9km/h 78.9% 0in /  0.0mm
06:19 72.9 °F /  22.7 °C 66.2 °F /  19 °C 30in /  1015.9hPa Calm   2mph /  3.2km/h 79.9% 0in /  0.0mm
06:24 73 °F /  22.8 °C 66.7 °F /  19.3 °C 30in /  1015.9hPa Calm   2.9mph /  4.7km/h 80.6% 0in /  0.0mm
06:29 73 °F /  22.8 °C 67.1 °F /  19.5 °C 30in /  1015.9hPa NNO 0.5mph /  0.8km/h 3.5mph /  5.6km/h 81.7% 0in /  0.0mm
06:34 73 °F /  22.8 °C 67.3 °F /  19.6 °C 30in /  1016.0hPa NO 1.8mph /  2.9km/h 3.6mph /  5.8km/h 82.4% 0in /  0.0mm
06:39 73 °F /  22.8 °C 67.6 °F /  19.8 °C 30in /  1016.0hPa NO 1.9mph /  3km/h 4.6mph /  7.4km/h 83% 0in /  0.0mm
06:44 72.9 °F /  22.7 °C 67.5 °F /  19.7 °C 30in /  1016.0hPa NO 2mph /  3.2km/h 5mph /  8km/h 83% 0in /  0.0mm
06:49 72.9 °F /  22.7 °C 67.6 °F /  19.8 °C 30in /  1016.0hPa NO 1.5mph /  2.4km/h   83.7% 0in /  0.0mm
06:54 72.9 °F /  22.7 °C 67.6 °F /  19.8 °C 30in /  1016.0hPa Calm     84% 0in /  0.0mm
06:59 72.9 °F /  22.7 °C 67.5 °F /  19.7 °C 30in /  1016.0hPa Calm     83.7% 0in /  0.0mm
07:04 72.5 °F /  22.5 °C 66.6 °F /  19.2 °C 30in /  1016.1hPa Calm   4.6mph /  7.4km/h 81.5% 0in /  0.0mm
07:09 72.1 °F /  22.3 °C 65.7 °F /  18.7 °C 30in /  1016.1hPa SE 0.4mph /  0.7km/h 5mph /  8km/h 80.2% 0in /  0.0mm
07:14 72 °F /  22.2 °C 65.5 °F /  18.6 °C 30in /  1016.1hPa SE 1.8mph /  2.9km/h 5mph /  8km/h 80% 0in /  0.0mm
07:19 72 °F /  22.2 °C 65.5 °F /  18.6 °C 30in /  1016.2hPa ESE 1.7mph /  2.7km/h 3mph /  4.8km/h 79.8% 0in /  0.0mm
07:24 72.1 °F /  22.3 °C 65.5 °F /  18.6 °C 30in /  1016.2hPa ESE 1.4mph /  2.2km/h 3mph /  4.8km/h 79.8% 0in /  0.0mm
07:29 72.1 °F /  22.3 °C 65.3 °F /  18.5 °C 30in /  1016.2hPa ESE 1mph /  1.6km/h   79.1% 0in /  0.0mm
07:34 72.3 °F /  22.4 °C 65.1 °F /  18.4 °C 30in /  1016.4hPa Calm     78% 0in /  0.0mm
07:39 72.3 °F /  22.4 °C 65.3 °F /  18.5 °C 30in /  1016.4hPa Calm     78.2% 0in /  0.0mm
07:44 72.7 °F /  22.6 °C 65.8 °F /  18.8 °C 30in /  1016.4hPa Calm     79% 0in /  0.0mm
07:49 72.9 °F /  22.7 °C 65.8 °F /  18.8 °C 30in /  1016.4hPa Calm     78.7% 0in /  0.0mm
07:54 72.9 °F /  22.7 °C 65.8 °F /  18.8 °C 30in /  1016.4hPa Calm     78.6% 0in /  0.0mm
07:59 73 °F /  22.8 °C 66 °F /  18.9 °C 30in /  1016.4hPa Calm     79% 0in /  0.0mm
08:04 73.2 °F /  22.9 °C 66.2 °F /  19 °C 30in /  1016.6hPa Calm     78.7% 0in /  0.0mm
08:09 73.6 °F /  23.1 °C 66 °F /  18.9 °C 30in /  1016.6hPa Calm   3.6mph /  5.8km/h 77.6% 0in /  0.0mm
08:14 73.8 °F /  23.2 °C 66.4 °F /  19.1 °C 30in /  1016.6hPa Calm   4mph /  6.4km/h 77.7% 0in /  0.0mm
08:19 73.9 °F /  23.3 °C 66.6 °F /  19.2 °C 30in /  1016.7hPa NE 0.5mph /  0.8km/h 3mph /  4.8km/h 78% 0in /  0.0mm
08:24 74.1 °F /  23.4 °C 66.6 °F /  19.2 °C 30in /  1016.7hPa NE 1.8mph /  2.9km/h 3mph /  4.8km/h 77.1% 0in /  0.0mm
08:29 74.5 °F /  23.6 °C 65.8 °F /  18.8 °C 30in /  1016.7hPa Este 1.8mph /  2.9km/h 3.5mph /  5.6km/h 74.6% 0in /  0.0mm
08:34 74.7 °F /  23.7 °C 65.5 °F /  18.6 °C 30in /  1016.8hPa Este 1.8mph /  2.9km/h 3.5mph /  5.6km/h 73.5% 0in /  0.0mm
08:39 74.8 °F /  23.8 °C 65.7 °F /  18.7 °C 30in /  1016.8hPa ESE 1.7mph /  2.7km/h 2mph /  3.2km/h 73% 0in /  0.0mm
08:44 75 °F /  23.9 °C 65.8 °F /  18.8 °C 30in /  1016.8hPa ESE 1.4mph /  2.2km/h   72.8% 0in /  0.0mm
08:49 75.4 °F /  24.1 °C 65.7 °F /  18.7 °C 30in /  1016.8hPa Oeste 1mph /  1.6km/h   72% 0in /  0.0mm
08:54 75.7 °F /  24.3 °C 66 °F /  18.9 °C 30in /  1016.8hPa Calm     71.9% 0in /  0.0mm
08:59 76.1 °F /  24.5 °C 66.2 °F /  19 °C 30in /  1016.8hPa Calm     71.8% 0in /  0.0mm
09:04 76.5 °F /  24.7 °C 66.4 °F /  19.1 °C 30in /  1016.9hPa Calm     71% 0in /  0.0mm
09:09 76.8 °F /  24.9 °C 66.7 °F /  19.3 °C 30in /  1016.9hPa Calm     71% 0in /  0.0mm
09:14 77.4 °F /  25.2 °C 66.7 °F /  19.3 °C 30in /  1016.9hPa Calm     70% 0in /  0.0mm
09:19 77.5 °F /  25.3 °C 66.9 °F /  19.4 °C 30in /  1017.0hPa Calm     69.7% 0in /  0.0mm
09:24 77.9 °F /  25.5 °C 66.9 °F /  19.4 °C 30in /  1017.0hPa Calm     69% 0in /  0.0mm
09:29 77.7 °F /  25.4 °C 66.7 °F /  19.3 °C 30in /  1017.0hPa Calm     69% 0in /  0.0mm
09:34 77.7 °F /  25.4 °C 66.7 °F /  19.3 °C 30in /  1017.1hPa Calm     69% 0in /  0.0mm
09:39 77.9 °F /  25.5 °C 67.1 °F /  19.5 °C 30in /  1017.1hPa Calm     69.4% 0in /  0.0mm
09:44 78.1 °F /  25.6 °C 67.1 °F /  19.5 °C 30in /  1017.1hPa Calm     69% 0in /  0.0mm
09:49 78.4 °F /  25.8 °C 67.3 °F /  19.6 °C 30in /  1017.1hPa Calm     68.5% 0in /  0.0mm
09:54 78.6 °F /  25.9 °C 67.1 °F /  19.5 °C 30in /  1017.1hPa Calm     67.7% 0in /  0.0mm
09:59 79.2 °F /  26.2 °C 67.3 °F /  19.6 °C 30in /  1017.1hPa Calm     67% 0in /  0.0mm
10:04 79.5 °F /  26.4 °C 67.5 °F /  19.7 °C 30in /  1017.1hPa Calm     66.6% 0in /  0.0mm
10:09 80.1 °F /  26.7 °C 67.6 °F /  19.8 °C 30in /  1017.0hPa Calm   1.4mph /  2.3km/h 65.7% 0in /  0.0mm
10:14 80.6 °F /  27 °C 67.6 °F /  19.8 °C 30in /  1017.0hPa Calm   5.9mph /  9.5km/h 65% 0in /  0.0mm
10:19 80.6 °F /  27 °C 67.8 °F /  19.9 °C 30in /  1017.0hPa ESE 0.5mph /  0.8km/h 6mph /  9.7km/h 65% 0in /  0.0mm
10:24 80.8 °F /  27.1 °C 68.2 °F /  20.1 °C 30in /  1017.0hPa NE 1.8mph /  2.9km/h 5mph /  8km/h 65.7% 0in /  0.0mm
10:29 80.8 °F /  27.1 °C 68.4 °F /  20.2 °C 30in /  1017.0hPa North 2mph /  3.2km/h 6.2mph /  10km/h 66% 0in /  0.0mm
10:34 80.8 °F /  27.1 °C 68.7 °F /  20.4 °C 30in /  1017.0hPa North 2.4mph /  3.9km/h 6.2mph /  10km/h 66.7% 0in /  0.0mm
10:39 80.8 °F /  27.1 °C 68.5 °F /  20.3 °C 30in /  1016.9hPa NE 2.6mph /  4.2km/h 6.9mph /  11.1km/h 66.3% 0in /  0.0mm
10:44 81 °F /  27.2 °C 68.9 °F /  20.5 °C 30in /  1016.9hPa NNE 3.1mph /  5km/h 7mph /  11.3km/h 66.8% 0in /  0.0mm
10:49 80.4 °F /  26.9 °C 68.9 °F /  20.5 °C 30in /  1016.9hPa NE 3.5mph /  5.7km/h 9.2mph /  14.8km/h 68% 0in /  0.0mm
10:54 80.1 °F /  26.7 °C 69.1 °F /  20.6 °C 30in /  1016.9hPa NNE 4.7mph /  7.6km/h 9mph /  14.5km/h 69.2% 0in /  0.0mm
10:59 80.1 °F /  26.7 °C 68.9 °F /  20.5 °C 30in /  1016.9hPa NNE 4.9mph /  7.9km/h 9.7mph /  15.6km/h 68.7% 0in /  0.0mm
11:04 80.1 °F /  26.7 °C 68.7 °F /  20.4 °C 30in /  1016.9hPa NE 5.4mph /  8.7km/h 10mph /  16.1km/h 68.3% 0in /  0.0mm
11:09 80.4 °F /  26.9 °C 68.4 °F /  20.2 °C 30in /  1016.9hPa NNE 5.3mph /  8.6km/h 9.2mph /  14.8km/h 66.6% 0in /  0.0mm
11:14 81.1 °F /  27.3 °C 68.9 °F /  20.5 °C 30in /  1016.9hPa NE 5.2mph /  8.4km/h 9mph /  14.5km/h 66.6% 0in /  0.0mm
11:19 81.7 °F /  27.6 °C 68.4 °F /  20.2 °C 30in /  1016.9hPa NE 5mph /  8km/h 9.2mph /  14.8km/h 64.3% 0in /  0.0mm
11:24 81.7 °F /  27.6 °C 67.8 °F /  19.9 °C 30in /  1016.9hPa NNE 4.3mph /  6.9km/h 10.4mph /  16.7km/h 63% 0in /  0.0mm
11:29 81.9 °F /  27.7 °C 66.7 °F /  19.3 °C 30in /  1016.9hPa NNE 4.4mph /  7.1km/h 10mph /  16.1km/h 60.5% 0in /  0.0mm
11:34 81.9 °F /  27.7 °C 65.5 °F /  18.6 °C 30in /  1016.9hPa NNO 4.7mph /  7.6km/h 9mph /  14.5km/h 57.8% 0in /  0.0mm
11:39 82 °F /  27.8 °C 66.6 °F /  19.2 °C 30in /  1016.9hPa NNE 4.6mph /  7.4km/h 10.4mph /  16.7km/h 59.6% 0in /  0.0mm
11:44 82.2 °F /  27.9 °C 66.4 °F /  19.1 °C 30in /  1016.9hPa NE 4.3mph /  6.9km/h 11.5mph /  18.5km/h 58.8% 0in /  0.0mm
11:49 82.6 °F /  28.1 °C 66.2 °F /  19 °C 30in /  1016.9hPa NNE 4.5mph /  7.3km/h 12mph /  19.3km/h 57.9% 0in /  0.0mm
11:54 82.9 °F /  28.3 °C 66 °F /  18.9 °C 30in /  1016.8hPa North 5.2mph /  8.4km/h 10.4mph /  16.7km/h 57% 0in /  0.0mm
11:59 82.9 °F /  28.3 °C 66.2 °F /  19 °C 30in /  1016.8hPa North 4.9mph /  7.9km/h 10mph /  16.1km/h 56.8% 0in /  0.0mm
12:04 83.3 °F /  28.5 °C 66.6 °F /  19.2 °C 30in /  1016.8hPa NNE 4.3mph /  6.9km/h 10.7mph /  17.2km/h 57% 0in /  0.0mm
12:09 83.7 °F /  28.7 °C 66.6 °F /  19.2 °C 30in /  1016.6hPa NNE 4.8mph /  7.7km/h 12.7mph /  20.4km/h 56.7% 0in /  0.0mm
12:14 83.7 °F /  28.7 °C 66.9 °F /  19.4 °C 30in /  1016.6hPa NE 5.9mph /  9.5km/h 13mph /  20.9km/h 57.4% 0in /  0.0mm
12:19 83.7 °F /  28.7 °C 67.3 °F /  19.6 °C 30in /  1016.6hPa NNE 6mph /  9.7km/h 12.7mph /  20.4km/h 58% 0in /  0.0mm
12:24 83.8 °F /  28.8 °C 67.3 °F /  19.6 °C 30in /  1016.5hPa NE 6.4mph /  10.3km/h 13mph /  20.9km/h 57.5% 0in /  0.0mm
12:29 84 °F /  28.9 °C 67.3 °F /  19.6 °C 30in /  1016.5hPa NNE 6.1mph /  9.8km/h 14mph /  22.5km/h 57.4% 0in /  0.0mm
12:34 84.4 °F /  29.1 °C 67.3 °F /  19.6 °C 30in /  1016.5hPa NNE 5.2mph /  8.4km/h 14mph /  22.5km/h 56.4% 0in /  0.0mm
12:39 84.6 °F /  29.2 °C 67.1 °F /  19.5 °C 30in /  1016.3hPa NE 5.7mph /  9.1km/h 14mph /  22.5km/h 56% 0in /  0.0mm
12:44 85.1 °F /  29.5 °C 67.3 °F /  19.6 °C 30in /  1016.3hPa NNE 6.9mph /  11.1km/h 13mph /  20.9km/h 55.6% 0in /  0.0mm
12:49 85.6 °F /  29.8 °C 67.5 °F /  19.7 °C 30in /  1016.3hPa NNE 6.6mph /  10.7km/h 12mph /  19.3km/h 54.8% 0in /  0.0mm
12:54 85.8 °F /  29.9 °C 67.3 °F /  19.6 °C 30in /  1016.1hPa NNE 5.9mph /  9.5km/h 12.7mph /  20.4km/h 54.1% 0in /  0.0mm
12:59 85.8 °F /  29.9 °C 67.5 °F /  19.7 °C 30in /  1016.1hPa NNE 6.1mph /  9.8km/h 13mph /  20.9km/h 54% 0in /  0.0mm
13:04 86.2 °F /  30.1 °C 66.9 °F /  19.4 °C 30in /  1016.1hPa NE 6.4mph /  10.3km/h 13mph /  20.9km/h 53% 0in /  0.0mm
13:09 86.4 °F /  30.2 °C 66.9 °F /  19.4 °C 30in /  1016.0hPa NE 6.7mph /  10.8km/h 13mph /  20.9km/h 52.6% 0in /  0.0mm
13:14 86.5 °F /  30.3 °C 66.9 °F /  19.4 °C 30in /  1016.0hPa NNE 7.6mph /  12.2km/h 15.2mph /  24.5km/h 52.2% 0in /  0.0mm
13:19 86.4 °F /  30.2 °C 66.9 °F /  19.4 °C 30in /  1016.0hPa NNE 7.9mph /  12.7km/h 16.1mph /  25.9km/h 52.4% 0in /  0.0mm
13:24 86.5 °F /  30.3 °C 66.6 °F /  19.2 °C 30in /  1015.7hPa North 8.7mph /  14km/h 16mph /  25.7km/h 51.6% 0in /  0.0mm
13:29 87.3 °F /  30.7 °C 66.4 °F /  19.1 °C 30in /  1015.7hPa NNE 8.4mph /  13.5km/h 13.8mph /  22.2km/h 49.9% 0in /  0.0mm
13:34 87.4 °F /  30.8 °C 66.2 °F /  19 °C 30in /  1015.7hPa NNE 7.6mph /  12.2km/h 14mph /  22.5km/h 49.2% 0in /  0.0mm
13:39 87.8 °F /  31 °C 66.4 °F /  19.1 °C 30in /  1015.4hPa NE 7.8mph /  12.5km/h 14.7mph /  23.7km/h 49.3% 0in /  0.0mm
13:44 88.2 °F /  31.2 °C 66.6 °F /  19.2 °C 30in /  1015.4hPa NE 8.1mph /  13km/h 15mph /  24.1km/h 49% 0in /  0.0mm
13:49 88.2 °F /  31.2 °C 66.2 °F /  19 °C 30in /  1015.4hPa NE 8.1mph /  13km/h 15.2mph /  24.5km/h 48.1% 0in /  0.0mm
13:54 88.3 °F /  31.3 °C 66.6 °F /  19.2 °C 30in /  1015.2hPa ENE 8.1mph /  13km/h 15mph /  24.1km/h 48.4% 0in /  0.0mm
13:59 88.9 °F /  31.6 °C 66.7 °F /  19.3 °C 30in /  1015.2hPa NE 7.9mph /  12.7km/h 13mph /  20.9km/h 48% 0in /  0.0mm
14:04 89.1 °F /  31.7 °C 66.7 °F /  19.3 °C 30in /  1015.2hPa NE 7.4mph /  11.9km/h 13mph /  20.9km/h 48% 0in /  0.0mm
14:09 89.2 °F /  31.8 °C 66.9 °F /  19.4 °C 30in /  1015.1hPa NE 7.5mph /  12km/h 13mph /  20.9km/h 48% 0in /  0.0mm
14:14 89.4 °F /  31.9 °C 67.1 °F /  19.5 °C 30in /  1015.1hPa NE 7.6mph /  12.2km/h 13mph /  20.9km/h 48% 0in /  0.0mm
14:19 89.4 °F /  31.9 °C 67.1 °F /  19.5 °C 30in /  1015.1hPa NE 8.2mph /  13.2km/h 22.3mph /  35.9km/h 48% 0in /  0.0mm
14:24 89.1 °F /  31.7 °C 67.3 °F /  19.6 °C 30in /  1014.9hPa NNE 9.7mph /  15.6km/h 22mph /  35.4km/h 48.6% 0in /  0.0mm
14:29 89.1 °F /  31.7 °C 67.3 °F /  19.6 °C 30in /  1014.9hPa NE 10.1mph /  16.3km/h 21mph /  33.8km/h 48.7% 0in /  0.0mm
14:34 89.4 °F /  31.9 °C 67.3 °F /  19.6 °C 30in /  1014.9hPa NE 11.4mph /  18.4km/h 18mph /  29km/h 48.1% 0in /  0.0mm
14:39 90 °F /  32.2 °C 67.5 °F /  19.7 °C 30in /  1014.8hPa NE 10.8mph /  17.4km/h 17.8mph /  28.6km/h 47.8% 0in /  0.0mm
14:44 89.8 °F /  32.1 °C 67.3 °F /  19.6 °C 30in /  1014.8hPa NE 9.2mph /  14.8km/h 20.7mph /  33.3km/h 47.6% 0in /  0.0mm
14:49 89.4 °F /  31.9 °C 66.9 °F /  19.4 °C 30in /  1014.8hPa NE 10mph /  16.1km/h 21mph /  33.8km/h 47.6% 0in /  0.0mm
14:54 89.8 °F /  32.1 °C 67.5 °F /  19.7 °C 30in /  1014.8hPa NE 12.3mph /  19.8km/h 20mph /  32.2km/h 48% 0in /  0.0mm
14:59 90 °F /  32.2 °C 67.5 °F /  19.7 °C 30in /  1014.8hPa NE 11.9mph /  19.2km/h 19.6mph /  31.5km/h 47.9% 0in /  0.0mm
15:04 90 °F /  32.2 °C 67.5 °F /  19.7 °C 30in /  1014.8hPa NE 11.2mph /  18km/h 20mph /  32.2km/h 47.9% 0in /  0.0mm
15:09 89.8 °F /  32.1 °C 67.3 °F /  19.6 °C 30in /  1014.8hPa NE 11.5mph /  18.5km/h 20.8mph /  33.5km/h 47.6% 0in /  0.0mm
15:14 89.6 °F /  32 °C 66.9 °F /  19.4 °C 30in /  1014.8hPa NE 12.3mph /  19.8km/h 21mph /  33.8km/h 47.5% 0in /  0.0mm
15:19 90 °F /  32.2 °C 66.9 °F /  19.4 °C 30in /  1014.8hPa NE 11.9mph /  19.1km/h 20.7mph /  33.3km/h 46.9% 0in /  0.0mm
15:24 89.4 °F /  31.9 °C 66.4 °F /  19.1 °C 30in /  1014.5hPa NE 10.7mph /  17.2km/h 21mph /  33.8km/h 46.6% 0in /  0.0mm
15:29 89.1 °F /  31.7 °C 66.7 °F /  19.3 °C 30in /  1014.5hPa NE 11.4mph /  18.4km/h 21mph /  33.8km/h 47.8% 0in /  0.0mm
15:34 89.2 °F /  31.8 °C 66.9 °F /  19.4 °C 30in /  1014.5hPa NE 13.5mph /  21.7km/h 20.8mph /  33.5km/h 47.7% 0in /  0.0mm
15:39 89.4 °F /  31.9 °C 66.7 °F /  19.3 °C 30in /  1014.4hPa NE 13.2mph /  21.2km/h 21mph /  33.8km/h 47.3% 0in /  0.0mm
15:44 89.4 °F /  31.9 °C 66.6 °F /  19.2 °C 30in /  1014.4hPa NE 12.3mph /  19.8km/h 20mph /  32.2km/h 47.2% 0in /  0.0mm
15:49 89.2 °F /  31.8 °C 66.9 °F /  19.4 °C 30in /  1014.4hPa NE 12.3mph /  19.8km/h 23.5mph /  37.8km/h 47.8% 0in /  0.0mm
15:54 89.4 °F /  31.9 °C 66.9 °F /  19.4 °C 30in /  1014.3hPa NE 12.3mph /  19.8km/h 23mph /  37km/h 47.7% 0in /  0.0mm
15:59 89.8 °F /  32.1 °C 66.9 °F /  19.4 °C 30in /  1014.3hPa NE 12.2mph /  19.6km/h 23mph /  37km/h 46.9% 0in /  0.0mm
16:04 90 °F /  32.2 °C 66.6 °F /  19.2 °C 30in /  1014.3hPa NE 11.8mph /  19km/h 20.7mph /  33.3km/h 46.4% 0in /  0.0mm
16:09 90.3 °F /  32.4 °C 66.9 °F /  19.4 °C 30in /  1014.3hPa ENE 11.3mph /  18.2km/h 21mph /  33.8km/h 46.3% 0in /  0.0mm
16:14 91 °F /  32.8 °C 64 °F /  17.8 °C 30in /  1014.3hPa ESE 10mph /  16.1km/h 13.8mph /  22.2km/h 41.1% 0in /  0.0mm
16:19 91.4 °F /  33 °C 63 °F /  17.2 °C 30in /  1014.3hPa ENE 9mph /  14.5km/h 14mph /  22.5km/h 38.9% 0in /  0.0mm
16:24 91.9 °F /  33.3 °C 63.1 °F /  17.3 °C 29.9in /  1014.1hPa Este 6.4mph /  10.3km/h 13mph /  20.9km/h 38.4% 0in /  0.0mm
16:29 92.1 °F /  33.4 °C 62.2 °F /  16.8 °C 29.9in /  1014.1hPa ESE 6.5mph /  10.5km/h 16.3mph /  26.2km/h 37% 0in /  0.0mm
16:34 92.1 °F /  33.4 °C 60.8 °F /  16 °C 29.9in /  1014.1hPa ESE 6.9mph /  11.1km/h 16mph /  25.7km/h 35.4% 0in /  0.0mm
16:39 92.3 °F /  33.5 °C 61 °F /  16.1 °C 29.9in /  1014.0hPa SE 7.6mph /  12.2km/h 19mph /  30.6km/h 35.4% 0in /  0.0mm
16:44 91.9 °F /  33.3 °C 61.7 °F /  16.5 °C 29.9in /  1014.0hPa SE 9.2mph /  14.8km/h 19mph /  30.6km/h 36.6% 0in /  0.0mm
16:49 92.1 °F /  33.4 °C 61.3 °F /  16.3 °C 29.9in /  1014.0hPa SE 9.4mph /  15.2km/h 18.4mph /  29.6km/h 36.1% 0in /  0.0mm
16:54 91.9 °F /  33.3 °C 61 °F /  16.1 °C 29.9in /  1013.9hPa SE 10mph /  16.1km/h 18mph /  29km/h 35.7% 0in /  0.0mm
16:59 91.9 °F /  33.3 °C 61.5 °F /  16.4 °C 29.9in /  1013.9hPa SE 10.4mph /  16.7km/h 17mph /  27.4km/h 36.4% 0in /  0.0mm
17:04 91.8 °F /  33.2 °C 61.9 °F /  16.6 °C 29.9in /  1013.9hPa SE 11.2mph /  18km/h 16.1mph /  25.9km/h 37.2% 0in /  0.0mm
17:09 91.8 °F /  33.2 °C 62.4 °F /  16.9 °C 29.9in /  1013.7hPa SE 10.9mph /  17.6km/h 17.5mph /  28.2km/h 38% 0in /  0.0mm
17:14 91.8 °F /  33.2 °C 62.6 °F /  17 °C 29.9in /  1013.7hPa SE 10.2mph /  16.4km/h 17mph /  27.4km/h 38% 0in /  0.0mm
17:19 91.6 °F /  33.1 °C 62.8 °F /  17.1 °C 29.9in /  1013.7hPa SE 9.9mph /  16km/h 19.6mph /  31.5km/h 38.6% 0in /  0.0mm
17:24 91.6 °F /  33.1 °C 63.1 °F /  17.3 °C 29.9in /  1013.5hPa SE 9.2mph /  14.8km/h 20mph /  32.2km/h 39% 0in /  0.0mm
17:29 91.8 °F /  33.2 °C 63.1 °F /  17.3 °C 29.9in /  1013.5hPa SE 9.2mph /  14.8km/h 18.4mph /  29.6km/h 38.9% 0in /  0.0mm
17:34 91.2 °F /  32.9 °C 64 °F /  17.8 °C 29.9in /  1013.5hPa SE 9.2mph /  14.8km/h 18.4mph /  29.6km/h 40.5% 0in /  0.0mm
17:39 90.9 °F /  32.7 °C 64.8 °F /  18.2 °C 29.9in /  1013.3hPa SE 9.8mph /  15.8km/h 18.5mph /  29.8km/h 42.2% 0in /  0.0mm
17:44 90.7 °F /  32.6 °C 64.6 °F /  18.1 °C 29.9in /  1013.3hPa ESE 11.4mph /  18.4km/h 20.7mph /  33.3km/h 42.3% 0in /  0.0mm
17:49 90.7 °F /  32.6 °C 65.1 °F /  18.4 °C 29.9in /  1013.3hPa SE 11.1mph /  17.8km/h 21mph /  33.8km/h 43% 0in /  0.0mm
17:54 90.3 °F /  32.4 °C 65.3 °F /  18.5 °C 29.9in /  1013.3hPa ESE 10.2mph /  16.4km/h 20.8mph /  33.5km/h 43.7% 0in /  0.0mm
17:59 90 °F /  32.2 °C 65.7 °F /  18.7 °C 29.9in /  1013.3hPa ESE 10.6mph /  17km/h 21mph /  33.8km/h 44.8% 0in /  0.0mm
18:04 89.6 °F /  32 °C 65.5 °F /  18.6 °C 29.9in /  1013.3hPa ESE 11.4mph /  18.4km/h 18mph /  29km/h 45% 0in /  0.0mm
18:09 89.8 °F /  32.1 °C 66 °F /  18.9 °C 29.9in /  1013.3hPa ESE 11.1mph /  17.8km/h 17mph /  27.4km/h 45.5% 0in /  0.0mm
18:14 89.6 °F /  32 °C 66.2 °F /  19 °C 29.9in /  1013.3hPa ESE 10.2mph /  16.4km/h 18.4mph /  29.6km/h 46.2% 0in /  0.0mm
18:19 89.4 °F /  31.9 °C 66.2 °F /  19 °C 29.9in /  1013.3hPa ESE 10.2mph /  16.4km/h 18mph /  29km/h 46.4% 0in /  0.0mm
18:24 89.2 °F /  31.8 °C 66.4 °F /  19.1 °C 29.9in /  1013.2hPa ESE 10.2mph /  16.4km/h 20.8mph /  33.5km/h 47% 0in /  0.0mm
18:29 88.9 °F /  31.6 °C 66.6 °F /  19.2 °C 29.9in /  1013.2hPa ESE 10.1mph /  16.3km/h 21mph /  33.8km/h 47.7% 0in /  0.0mm
18:34 88.9 °F /  31.6 °C 67.1 °F /  19.5 °C 29.9in /  1013.2hPa ESE 10mph /  16.1km/h 17mph /  27.4km/h 48.7% 0in /  0.0mm
18:39 88.5 °F /  31.4 °C 67.3 °F /  19.6 °C 29.9in /  1013.2hPa ESE 10.1mph /  16.2km/h 18.4mph /  29.6km/h 49.5% 0in /  0.0mm
18:44 88.2 °F /  31.2 °C 67.3 °F /  19.6 °C 29.9in /  1013.2hPa ESE 10.2mph /  16.4km/h 18mph /  29km/h 50.1% 0in /  0.0mm
18:49 88.2 °F /  31.2 °C 67.3 °F /  19.6 °C 29.9in /  1013.2hPa ESE 10.1mph /  16.3km/h 18mph /  29km/h 50% 0in /  0.0mm
18:54 88.2 °F /  31.2 °C 67.1 °F /  19.5 °C 29.9in /  1013.1hPa ESE 10mph /  16.1km/h 17.3mph /  27.8km/h 50% 0in /  0.0mm
18:59 87.8 °F /  31 °C 66.9 °F /  19.4 °C 29.9in /  1013.1hPa Este 9.9mph /  15.9km/h 17mph /  27.4km/h 50% 0in /  0.0mm
19:04 87.6 °F /  30.9 °C 66.7 °F /  19.3 °C 29.9in /  1013.1hPa ESE 9.7mph /  15.6km/h 18.5mph /  29.8km/h 50% 0in /  0.0mm
19:09 87.4 °F /  30.8 °C 67.1 °F /  19.5 °C 29.9in /  1013.1hPa Este 9.8mph /  15.7km/h 19mph /  30.6km/h 50.7% 0in /  0.0mm
19:14 87.4 °F /  30.8 °C 67.1 °F /  19.5 °C 29.9in /  1013.1hPa ESE 10mph /  16.1km/h 16.1mph /  25.9km/h 51% 0in /  0.0mm
19:19 87.4 °F /  30.8 °C 67.1 °F /  19.5 °C 29.9in /  1013.2hPa ESE 10mph /  16.1km/h 16.1mph /  25.9km/h 51% 0in /  0.0mm
19:24 87.1 °F /  30.6 °C 66.9 °F /  19.4 °C 29.9in /  1013.2hPa Este 10mph /  16.1km/h 17.5mph /  28.2km/h 51.3% 0in /  0.0mm
19:29 86.9 °F /  30.5 °C 67.1 °F /  19.5 °C 29.9in /  1013.2hPa ESE 10mph /  16.1km/h 17mph /  27.4km/h 52% 0in /  0.0mm
19:34 86.9 °F /  30.5 °C 67.3 °F /  19.6 °C 29.9in /  1013.2hPa Este 10mph /  16.1km/h 17.3mph /  27.8km/h 52.2% 0in /  0.0mm
19:39 86.7 °F /  30.4 °C 67.5 °F /  19.7 °C 29.9in /  1013.2hPa Este 9.5mph /  15.3km/h 17mph /  27.4km/h 53% 0in /  0.0mm
19:44 86.4 °F /  30.2 °C 67.8 °F /  19.9 °C 29.9in /  1013.2hPa Este 8.1mph /  13km/h 14.5mph /  23.3km/h 54% 0in /  0.0mm
19:49 86.2 °F /  30.1 °C 68 °F /  20 °C 29.9in /  1013.3hPa ESE 8.2mph /  13.2km/h 15mph /  24.1km/h 54.9% 0in /  0.0mm
19:54 85.8 °F /  29.9 °C 67.8 °F /  19.9 °C 29.9in /  1013.3hPa Este 8.5mph /  13.7km/h 14mph /  22.5km/h 55% 0in /  0.0mm
19:59 85.8 °F /  29.9 °C 67.8 °F /  19.9 °C 29.9in /  1013.3hPa Este 8.1mph /  13.1km/h 15mph /  24.1km/h 55% 0in /  0.0mm
20:04 85.6 °F /  29.8 °C 68.2 °F /  20.1 °C 29.9in /  1013.5hPa Este 7.4mph /  11.9km/h 16.3mph /  26.2km/h 56.3% 0in /  0.0mm
20:09 85.3 °F /  29.6 °C 68.4 °F /  20.2 °C 29.9in /  1013.5hPa Este 7.7mph /  12.4km/h 16mph /  25.7km/h 57% 0in /  0.0mm
20:14 84.9 °F /  29.4 °C 68.5 °F /  20.3 °C 29.9in /  1013.5hPa Este 8.5mph /  13.7km/h 16.1mph /  25.9km/h 57.9% 0in /  0.0mm
20:19 84.7 °F /  29.3 °C 68.5 °F /  20.3 °C 29.9in /  1013.5hPa Este 8.5mph /  13.7km/h 16.1mph /  25.9km/h 58.4% 0in /  0.0mm
20:24 84.6 °F /  29.2 °C 68.7 °F /  20.4 °C 29.9in /  1013.5hPa ESE 8.5mph /  13.7km/h 16.1mph /  25.9km/h 59% 0in /  0.0mm
20:29 84.4 °F /  29.1 °C 69.1 °F /  20.6 °C 29.9in /  1013.5hPa Este 8.2mph /  13.2km/h 16mph /  25.7km/h 60% 0in /  0.0mm
20:34 84.2 °F /  29 °C 68.7 °F /  20.4 °C 29.9in /  1013.7hPa ESE 7.6mph /  12.2km/h 13.8mph /  22.2km/h 60% 0in /  0.0mm
20:39 84 °F /  28.9 °C 69.1 °F /  20.6 °C 29.9in /  1013.7hPa Este 7.3mph /  11.7km/h 14mph /  22.5km/h 60.9% 0in /  0.0mm
20:44 83.8 °F /  28.8 °C 69.3 °F /  20.7 °C 29.9in /  1013.7hPa NE 6.4mph /  10.3km/h 12mph /  19.3km/h 61.7% 0in /  0.0mm
20:49 83.5 °F /  28.6 °C 69.8 °F /  21 °C 29.9in /  1013.8hPa ENE 6.3mph /  10.2km/h 13.8mph /  22.2km/h 63.7% 0in /  0.0mm
20:54 82.9 °F /  28.3 °C 70 °F /  21.1 °C 29.9in /  1013.8hPa ENE 6.2mph /  10km/h 14mph /  22.5km/h 64.9% 0in /  0.0mm
20:59 82.8 °F /  28.2 °C 70 °F /  21.1 °C 29.9in /  1013.8hPa ENE 5.7mph /  9.2km/h 9.2mph /  14.8km/h 65.5% 0in /  0.0mm
21:04 82.6 °F /  28.1 °C 70.2 °F /  21.2 °C 29.9in /  1014.0hPa ENE 4.7mph /  7.6km/h 9mph /  14.5km/h 66% 0in /  0.0mm
21:09 82.2 °F /  27.9 °C 70 °F /  21.1 °C 29.9in /  1014.0hPa ENE 4.8mph /  7.8km/h 14mph /  22.5km/h 66.6% 0in /  0.0mm
21:14 82 °F /  27.8 °C 70.2 °F /  21.2 °C 29.9in /  1014.0hPa NE 5.2mph /  8.4km/h 14mph /  22.5km/h 67.5% 0in /  0.0mm
21:19 81.7 °F /  27.6 °C 70.2 °F /  21.2 °C 29.9in /  1014.1hPa ENE 5.8mph /  9.4km/h 14mph /  22.5km/h 68.1% 0in /  0.0mm
21:24 81.3 °F /  27.4 °C 70.2 °F /  21.2 °C 29.9in /  1014.1hPa NE 7.6mph /  12.2km/h 13mph /  20.9km/h 69% 0in /  0.0mm
21:29 81.3 °F /  27.4 °C 70.2 °F /  21.2 °C 29.9in /  1014.1hPa NE 7.3mph /  11.7km/h 12mph /  19.3km/h 69% 0in /  0.0mm
21:34 81.1 °F /  27.3 °C 70.2 °F /  21.2 °C 30in /  1014.2hPa NE 6.4mph /  10.3km/h 12.7mph /  20.4km/h 69.7% 0in /  0.0mm
21:39 80.8 °F /  27.1 °C 70.5 °F /  21.4 °C 30in /  1014.2hPa NE 6.7mph /  10.8km/h 13mph /  20.9km/h 70.8% 0in /  0.0mm
21:44 80.6 °F /  27 °C 70.5 °F /  21.4 °C 30in /  1014.2hPa NE 7.4mph /  11.9km/h 13mph /  20.9km/h 71.5% 0in /  0.0mm
21:49 80.4 °F /  26.9 °C 70.5 °F /  21.4 °C 30in /  1014.3hPa NE 7.5mph /  12km/h 13mph /  20.9km/h 72% 0in /  0.0mm
21:54 80.2 °F /  26.8 °C 70.9 °F /  21.6 °C 30in /  1014.3hPa NE 7.6mph /  12.2km/h 13mph /  20.9km/h 72.9% 0in /  0.0mm
21:59 80.2 °F /  26.8 °C 70.7 °F /  21.5 °C 30in /  1014.3hPa NE 7.5mph /  12.1km/h 13mph /  20.9km/h 73% 0in /  0.0mm
22:04 80.1 °F /  26.7 °C 70.9 °F /  21.6 °C 30in /  1014.5hPa ENE 7.4mph /  11.9km/h 12mph /  19.3km/h 73.8% 0in /  0.0mm
22:09 80.1 °F /  26.7 °C 70.9 °F /  21.6 °C 30in /  1014.5hPa NE 6.6mph /  10.7km/h 9.7mph /  15.6km/h 74.2% 0in /  0.0mm
22:14 79.9 °F /  26.6 °C 71.2 °F /  21.8 °C 30in /  1014.5hPa NE 4.7mph /  7.6km/h 12.5mph /  20.1km/h 75.1% 0in /  0.0mm
22:19 79.3 °F /  26.3 °C 71.2 °F /  21.8 °C 30in /  1014.6hPa NE 5.1mph /  8.2km/h 13mph /  20.9km/h 76.2% 0in /  0.0mm
22:24 79.3 °F /  26.3 °C 71.4 °F /  21.9 °C 30in /  1014.6hPa NE 6.2mph /  10km/h 13mph /  20.9km/h 77% 0in /  0.0mm
22:29 79.2 °F /  26.2 °C 71.4 °F /  21.9 °C 30in /  1014.6hPa NE 6.2mph /  10km/h 12mph /  19.3km/h 77.2% 0in /  0.0mm
22:34 79 °F /  26.1 °C 71.6 °F /  22 °C 30in /  1014.8hPa NE 6.2mph /  10km/h 11.5mph /  18.5km/h 78% 0in /  0.0mm
22:39 78.8 °F /  26 °C 71.6 °F /  22 °C 30in /  1014.8hPa NE 6.4mph /  10.3km/h 12mph /  19.3km/h 78.4% 0in /  0.0mm
22:44 78.6 °F /  25.9 °C 71.6 °F /  22 °C 30in /  1014.8hPa NE 6.9mph /  11.1km/h 12mph /  19.3km/h 79% 0in /  0.0mm
22:49 78.4 °F /  25.8 °C 71.8 °F /  22.1 °C 30in /  1014.9hPa NE 6.7mph /  10.8km/h 11mph /  17.7km/h 79.5% 0in /  0.0mm
22:54 78.4 °F /  25.8 °C 71.8 °F /  22.1 °C 30in /  1014.9hPa NE 6.2mph /  10km/h 10mph /  16.1km/h 80% 0in /  0.0mm
22:59 78.4 °F /  25.8 °C 71.8 °F /  22.1 °C 30in /  1014.9hPa NE 6.2mph /  10km/h 10mph /  16.1km/h 80% 0in /  0.0mm
23:04 78.3 °F /  25.7 °C 71.8 °F /  22.1 °C 30in /  1015.0hPa NE 6.2mph /  10km/h 12.7mph /  20.4km/h 80.8% 0in /  0.0mm
23:09 78.3 °F /  25.7 °C 71.8 °F /  22.1 °C 30in /  1015.0hPa NE 6.3mph /  10.1km/h 13mph /  20.9km/h 81% 0in /  0.0mm
23:14 78.1 °F /  25.6 °C 71.8 °F /  22.1 °C 30in /  1015.0hPa NE 6.4mph /  10.3km/h 10mph /  16.1km/h 81% 0in /  0.0mm
23:19 77.9 °F /  25.5 °C 72 °F /  22.2 °C 30in /  1015.0hPa NE 6.3mph /  10.2km/h 10mph /  16.1km/h 81.8% 0in /  0.0mm
23:24 77.9 °F /  25.5 °C 72 °F /  22.2 °C 30in /  1015.0hPa NE 6.2mph /  10km/h 11.4mph /  18.3km/h 82% 0in /  0.0mm
23:29 77.7 °F /  25.4 °C 71.8 °F /  22.1 °C 30in /  1015.0hPa NE 6.2mph /  10km/h 12mph /  19.3km/h 82.2% 0in /  0.0mm
23:34 77.7 °F /  25.4 °C 72.1 °F /  22.3 °C 30in /  1015.0hPa NE 6.2mph /  10km/h 12mph /  19.3km/h 83% 0in /  0.0mm
23:39 77.5 °F /  25.3 °C 72 °F /  22.2 °C 30in /  1015.0hPa NE 6mph /  9.6km/h 9.2mph /  14.8km/h 83% 0in /  0.0mm
23:44 77.5 °F /  25.3 °C 72 °F /  22.2 °C 30in /  1015.0hPa NE 5.4mph /  8.7km/h 9.2mph /  14.8km/h 83% 0in /  0.0mm
23:49 77.5 °F /  25.3 °C 72.1 °F /  22.3 °C 30in /  1015.0hPa NE 5.4mph /  8.7km/h 10mph /  16.1km/h 83.6% 0in /  0.0mm
23:54 77.4 °F /  25.2 °C 72.1 °F /  22.3 °C 30in /  1014.9hPa NE 5.4mph /  8.7km/h 11.5mph /  18.5km/h 84% 0in /  0.0mm
23:59 77.4 °F /  25.2 °C 72.1 °F /  22.3 °C 30in /  1014.9hPa NE 5.7mph /  9.2km/h 12mph /  19.3km/h 84.2% 0in /  0.0mm
Murcia-Puente Tocinos, España
Compliments of Weather Underground - 3 mb

La estación de MeteoMurcia.com, publica sus datos en los siguientes proyectos:

Weather Underground PWS IMURCIAP2 Meteoclimatic www.awekas.at

W3Counter
Web Analytics